Horizon — WDH3298 — position and weather

sailwx.info

Track history (hours):
 
Tides and Currents Weather Stations Pressure Air Temp Water Temp Dewpoint Dewpoint Depression Visibility Wind Speed Wind Dir Waves Ship Positions

Horizon

Owner: Horizon Charters Inc., San Diego, CA. More information available from US FCC via Universal Licensing System and Coast Guard Vessel Documentation Center.

Last reported at 2018-Feb-21 16:50 UTC. Time now 2018-Feb-24 06:34 UTC.
Position N 32°43' W 117°14'.

Length 22 m.

Type: Diving. MMSI: 338776000.

Date/timePositionNaut miles runAvg speedWind from/ knotsBaromVisibWave heightAir tempDewpointWater temp
2018-Feb-21 16:50N 32°43' W 117°14'0 0.0
2018-Feb-21 16:29N 32°43' W 117°14'0 0.0
2018-Feb-21 15:59N 32°43' W 117°14'0 0.0
2018-Feb-21 15:30N 32°43' W 117°14'  
2018-Feb-17 14:13N 32°38' W 117°21'2 9.1
2018-Feb-17 14:00N 32°38' W 117°23'5 9.1
2018-Feb-17 13:30N 32°38' W 117°29'4 8.8
2018-Feb-17 13:00N 32°38' W 117°34'5 9.2
2018-Feb-17 12:30N 32°38' W 117°40'5 9.6
2018-Feb-17 12:00N 32°38' W 117°45'5 9.6
2018-Feb-17 11:30N 32°38' W 117°51'5 9.5
2018-Feb-17 11:00N 32°38' W 117°57'5 9.5
2018-Feb-17 10:30N 32°38' W 118°02'5 9.4
2018-Feb-17 10:00N 32°38' W 118°08'8 9.4
2018-Feb-17 09:10N 32°39' W 118°17'2 9.3
2018-Feb-17 08:57N 32°39' W 118°20'4 9.4
2018-Feb-17 08:29N 32°40' W 118°25'5 9.6
2018-Feb-17 08:00N 32°41' W 118°30'7 9.9
2018-Feb-17 07:17N 32°42' W 118°38'46 9.8
2018-Feb-17 02:34N 32°50' W 119°33'110.5
2018-Feb-17 02:28N 32°51' W 119°34'2510.3
2018-Feb-17 00:00N 32°58' W 120°03'1110.2
2018-Feb-16 22:56N 33°01' W 120°15'510.3
2018-Feb-16 22:28N 33°03' W 120°21'510.3
2018-Feb-16 22:00N 33°04' W 120°26'510.3
2018-Feb-16 21:30N 33°05' W 120°32'510.4
2018-Feb-16 21:00N 33°07' W 120°38'510.1
2018-Feb-16 20:30N 33°09' W 120°43'710.2
2018-Feb-16 19:49N 33°12' W 120°51'3 6.0
2018-Feb-16 19:20N 33°15' W 120°52'310.4
2018-Feb-16 19:00N 33°18' W 120°53'3 4.7
2018-Feb-16 18:16N 33°19' W 120°49'310.0
2018-Feb-16 18:00N 33°18' W 120°46'5 9.8
2018-Feb-16 17:30N 33°17' W 120°41'510.0
2018-Feb-16 17:00N 33°15' W 120°35'810.1
2018-Feb-16 16:13N 33°13' W 120°26'210.1
2018-Feb-16 15:59N 33°12' W 120°23'510.0
2018-Feb-16 15:28N 33°11' W 120°17'13 9.9
2018-Feb-16 14:08N 33°07' W 120°02'4810.1
2018-Feb-16 09:27N 32°54' W 119°08'510.4
2018-Feb-16 08:58N 32°52' W 119°02'510.3
2018-Feb-16 08:26N 32°51' W 118°56'1210.4
2018-Feb-16 07:16N 32°47' W 118°42'810.1
2018-Feb-16 06:31N 32°45' W 118°33'0 9.3
2018-Feb-16 06:30N 32°45' W 118°33'510.2
2018-Feb-16 06:00N 32°44' W 118°27'1310.0
2018-Feb-16 04:44N 32°42' W 118°12'210.0
2018-Feb-16 04:30N 32°42' W 118°10'5 9.8
2018-Feb-16 03:58N 32°42' W 118°03'4 9.8
2018-Feb-16 03:30N 32°42' W 117°58'5 9.9
2018-Feb-16 03:00N 32°41' W 117°52'510.2
2018-Feb-16 02:30N 32°41' W 117°46'5 9.9
2018-Feb-16 02:00N 32°41' W 117°40'5 9.8
2018-Feb-16 01:30N 32°40' W 117°35'5 9.9
2018-Feb-16 01:00N 32°39' W 117°29'5 9.9
2018-Feb-16 00:30N 32°38' W 117°23'5 9.8
2018-Feb-16 00:00N 32°38' W 117°17'6 8.2
2018-Feb-15 23:17N 32°43' W 117°13'  
2018-Feb-12 03:33N 32°43' W 117°13'111.9
2018-Feb-12 03:30N 32°43' W 117°13'4 8.2
2018-Feb-12 02:59N 32°39' W 117°16'510.3
2018-Feb-12 02:30N 32°41' W 117°21'510.5
2018-Feb-12 02:00N 32°43' W 117°26'510.5
2018-Feb-12 01:30N 32°46' W 117°32'510.9
2018-Feb-12 01:00N 32°49' W 117°37'510.2
2018-Feb-12 00:30N 32°51' W 117°43'510.1
2018-Feb-11 23:59N 32°54' W 117°48'3 0.9
2018-Feb-11 20:54N 32°54' W 117°52'0 0.7
2018-Feb-11 20:29N 32°54' W 117°51'0 0.8
2018-Feb-11 20:00N 32°55' W 117°51'0 0.2
2018-Feb-11 19:27N 32°55' W 117°51'2 3.6
2018-Feb-11 18:57N 32°55' W 117°53'0 0.3
2018-Feb-11 18:29N 32°55' W 117°53'4 8.3
2018-Feb-11 18:00N 32°58' W 117°56'  
Track history (hours):
 
Tides and Currents Weather Stations Pressure Air Temp Water Temp Dewpoint Dewpoint Depression Visibility Wind Speed Wind Dir Waves Ship Positions

Horizon

Owner: Horizon Charters Inc., San Diego, CA. More information available from US FCC via Universal Licensing System and Coast Guard Vessel Documentation Center.

Last reported at 2018-Feb-21 16:50 UTC. Time now 2018-Feb-24 06:34 UTC.
Position N 32°43' W 117°14'.

Length 22 m.

Type: Diving. MMSI: 338776000.

Date/timePositionNaut miles runAvg speedWind from/ knotsBaromVisibWave heightAir tempDewpointWater temp
2018-Feb-21 16:50N 32°43' W 117°14'0 0.0
2018-Feb-21 16:29N 32°43' W 117°14'0 0.0
2018-Feb-21 15:59N 32°43' W 117°14'0 0.0
2018-Feb-21 15:30N 32°43' W 117°14'  
2018-Feb-17 14:13N 32°38' W 117°21'2 9.1
2018-Feb-17 14:00N 32°38' W 117°23'5 9.1
2018-Feb-17 13:30N 32°38' W 117°29'4 8.8
2018-Feb-17 13:00N 32°38' W 117°34'5 9.2
2018-Feb-17 12:30N 32°38' W 117°40'5 9.6
2018-Feb-17 12:00N 32°38' W 117°45'5 9.6
2018-Feb-17 11:30N 32°38' W 117°51'5 9.5
2018-Feb-17 11:00N 32°38' W 117°57'5 9.5
2018-Feb-17 10:30N 32°38' W 118°02'5 9.4
2018-Feb-17 10:00N 32°38' W 118°08'8 9.4
2018-Feb-17 09:10N 32°39' W 118°17'2 9.3
2018-Feb-17 08:57N 32°39' W 118°20'4 9.4
2018-Feb-17 08:29N 32°40' W 118°25'5 9.6
2018-Feb-17 08:00N 32°41' W 118°30'7 9.9
2018-Feb-17 07:17N 32°42' W 118°38'46 9.8
2018-Feb-17 02:34N 32°50' W 119°33'110.5
2018-Feb-17 02:28N 32°51' W 119°34'2510.3
2018-Feb-17 00:00N 32°58' W 120°03'1110.2
2018-Feb-16 22:56N 33°01' W 120°15'510.3
2018-Feb-16 22:28N 33°03' W 120°21'510.3
2018-Feb-16 22:00N 33°04' W 120°26'510.3
2018-Feb-16 21:30N 33°05' W 120°32'510.4
2018-Feb-16 21:00N 33°07' W 120°38'510.1
2018-Feb-16 20:30N 33°09' W 120°43'710.2
2018-Feb-16 19:49N 33°12' W 120°51'3 6.0
2018-Feb-16 19:20N 33°15' W 120°52'310.4
2018-Feb-16 19:00N 33°18' W 120°53'3 4.7
2018-Feb-16 18:16N 33°19' W 120°49'310.0
2018-Feb-16 18:00N 33°18' W 120°46'5 9.8
2018-Feb-16 17:30N 33°17' W 120°41'510.0
2018-Feb-16 17:00N 33°15' W 120°35'810.1
2018-Feb-16 16:13N 33°13' W 120°26'210.1
2018-Feb-16 15:59N 33°12' W 120°23'510.0
2018-Feb-16 15:28N 33°11' W 120°17'13 9.9
2018-Feb-16 14:08N 33°07' W 120°02'4810.1
2018-Feb-16 09:27N 32°54' W 119°08'510.4
2018-Feb-16 08:58N 32°52' W 119°02'510.3
2018-Feb-16 08:26N 32°51' W 118°56'1210.4
2018-Feb-16 07:16N 32°47' W 118°42'810.1
2018-Feb-16 06:31N 32°45' W 118°33'0 9.3
2018-Feb-16 06:30N 32°45' W 118°33'510.2
2018-Feb-16 06:00N 32°44' W 118°27'1310.0
2018-Feb-16 04:44N 32°42' W 118°12'210.0
2018-Feb-16 04:30N 32°42' W 118°10'5 9.8
2018-Feb-16 03:58N 32°42' W 118°03'4 9.8
2018-Feb-16 03:30N 32°42' W 117°58'5 9.9
2018-Feb-16 03:00N 32°41' W 117°52'510.2
2018-Feb-16 02:30N 32°41' W 117°46'5 9.9
2018-Feb-16 02:00N 32°41' W 117°40'5 9.8
2018-Feb-16 01:30N 32°40' W 117°35'5 9.9
2018-Feb-16 01:00N 32°39' W 117°29'5 9.9
2018-Feb-16 00:30N 32°38' W 117°23'5 9.8
2018-Feb-16 00:00N 32°38' W 117°17'6 8.2
2018-Feb-15 23:17N 32°43' W 117°13'  
2018-Feb-12 03:33N 32°43' W 117°13'111.9
2018-Feb-12 03:30N 32°43' W 117°13'4 8.2
2018-Feb-12 02:59N 32°39' W 117°16'510.3
2018-Feb-12 02:30N 32°41' W 117°21'510.5
2018-Feb-12 02:00N 32°43' W 117°26'510.5
2018-Feb-12 01:30N 32°46' W 117°32'510.9
2018-Feb-12 01:00N 32°49' W 117°37'510.2
2018-Feb-12 00:30N 32°51' W 117°43'510.1
2018-Feb-11 23:59N 32°54' W 117°48'3 0.9
2018-Feb-11 20:54N 32°54' W 117°52'0 0.7
2018-Feb-11 20:29N 32°54' W 117°51'0 0.8
2018-Feb-11 20:00N 32°55' W 117°51'0 0.2
2018-Feb-11 19:27N 32°55' W 117°51'2 3.6
2018-Feb-11 18:57N 32°55' W 117°53'0 0.3
2018-Feb-11 18:29N 32°55' W 117°53'4 8.3
2018-Feb-11 18:00N 32°58' W 117°56'  

Dump ship's entire track history